Time;durP1;ratioP1;P1;durP2;ratioP2;P2;SDS_P1;SDS_P2;PMS_P1;PMS_P2;Temp;Humidity;BMP_temperature;BMP_pressure;BME280_temperature;BME280_humidity;BME280_pressure;Samples;Min_cycle;Max_cycle;Signal;HPM_P1;HPM_P2
2022/11/09 00:00:06;;;;;;;2.10;0.90;;;11.70;99.90;;;;;;4877252;29;20061;-74
2022/11/09 00:02:32;;;;;;;;;;;11.70;99.90;;;;;;4897213;29;20587;-74
2022/11/09 00:04:58;;;;;;;2.20;0.65;;;11.70;99.90;;;;;;4896242;29;19923;-74
2022/11/09 00:07:23;;;;;;;1.58;0.77;;;11.70;99.90;;;;;;4913792;29;20389;-74
2022/11/09 00:09:49;;;;;;;1.23;0.85;;;11.70;99.90;;;;;;4896084;29;20072;-74
2022/11/09 00:12:14;;;;;;;1.27;0.80;;;11.70;99.90;;;;;;4895220;29;20040;-75
2022/11/09 00:14:40;;;;;;;1.58;1.02;;;11.70;99.90;;;;;;4911713;29;20051;-74
2022/11/09 00:17:06;;;;;;;1.35;0.70;;;11.80;99.90;;;;;;4912104;29;20043;-74
2022/11/09 00:19:32;;;;;;;1.40;0.85;;;11.80;99.90;;;;;;4881578;29;20142;-79
2022/11/09 00:21:57;;;;;;;3.83;1.40;;;11.80;99.90;;;;;;4913167;29;20664;-80
2022/11/09 00:24:23;;;;;;;1.42;0.77;;;11.80;99.90;;;;;;4895765;29;20461;-80
2022/11/09 00:26:49;;;;;;;1.42;0.80;;;11.80;99.90;;;;;;4896471;29;20036;-79
2022/11/09 00:29:14;;;;;;;2.22;1.10;;;11.80;99.90;;;;;;4911300;29;20043;-79
2022/11/09 00:31:40;;;;;;;2.90;1.00;;;11.80;99.90;;;;;;4897382;29;20448;-80
2022/11/09 00:34:06;;;;;;;2.55;0.98;;;11.80;99.90;;;;;;4895868;29;20051;-80
2022/11/09 00:36:32;;;;;;;2.05;1.10;;;11.80;99.90;;;;;;4880555;29;20044;-79
2022/11/09 00:38:59;;;;;;;2.15;1.00;;;11.80;99.90;;;;;;4896693;29;20052;-79
2022/11/09 00:41:26;;;;;;;1.58;0.70;;;11.80;99.90;;;;;;4897020;29;20046;-79
2022/11/09 00:43:52;;;;;;;1.17;0.80;;;11.90;99.90;;;;;;4897349;29;20071;-79
2022/11/09 00:46:18;;;;;;;;;;;11.80;99.90;;;;;;4875378;29;20048;-79
2022/11/09 00:48:44;;;;;;;0.75;0.70;;;11.90;99.90;;;;;;4896066;29;19990;-78
2022/11/09 00:51:11;;;;;;;1.65;0.80;;;11.80;99.90;;;;;;4910993;29;20552;-79
2022/11/09 00:53:37;;;;;;;1.73;0.85;;;11.80;99.90;;;;;;4911990;29;20044;-79
2022/11/09 00:56:04;;;;;;;;;;;11.80;99.90;;;;;;4879077;29;20043;-80
2022/11/09 00:58:32;;;;;;;2.95;1.00;;;11.90;99.90;;;;;;4898442;29;19927;-79
2022/11/09 01:00:59;;;;;;;3.10;1.27;;;11.90;99.90;;;;;;4900226;29;20040;-79
2022/11/09 01:03:26;;;;;;;1.65;1.08;;;12.00;99.90;;;;;;4906012;29;20048;-80
2022/11/09 01:05:52;;;;;;;1.80;1.08;;;11.90;99.90;;;;;;4900685;29;20048;-79
2022/11/09 01:08:18;;;;;;;2.63;1.20;;;11.90;99.90;;;;;;4896269;29;20127;-79
2022/11/09 01:10:47;;;;;;;2.63;1.30;;;12.00;99.90;;;;;;4895853;29;20082;-80
2022/11/09 01:13:14;;;;;;;3.25;1.20;;;12.00;99.90;;;;;;4895646;29;20055;-79
2022/11/09 01:15:47;;;;;;;2.35;1.30;;;12.00;99.90;;;;;;4878387;29;20085;-78
2022/11/09 01:18:14;;;;;;;4.50;1.88;;;11.90;99.90;;;;;;4907302;29;20107;-79
2022/11/09 01:20:41;;;;;;;2.85;1.52;;;11.90;99.90;;;;;;4895852;29;20461;-80
2022/11/09 01:23:08;;;;;;;1.33;0.90;;;11.90;99.90;;;;;;4894818;29;20039;-80
2022/11/09 01:25:34;;;;;;;2.42;1.35;;;11.90;99.90;;;;;;4878897;29;20071;-80
2022/11/09 01:28:00;;;;;;;4.07;1.20;;;11.90;99.90;;;;;;4895375;29;20082;-80
2022/11/09 01:30:26;;;;;;;2.45;1.10;;;11.90;99.90;;;;;;4894632;29;20043;-80
2022/11/09 01:32:52;;;;;;;;;;;11.90;99.90;;;;;;4896832;29;20060;-80
2022/11/09 01:35:18;;;;;;;4.20;1.20;;;11.90;99.90;;;;;;4895968;29;19923;-80
2022/11/09 01:37:44;;;;;;;4.50;1.58;;;11.90;99.90;;;;;;4897031;29;20050;-81
2022/11/09 01:40:10;;;;;;;3.58;1.80;;;12.00;99.90;;;;;;4911443;29;20833;-79
2022/11/09 01:42:37;;;;;;;4.05;1.58;;;12.00;99.90;;;;;;4895187;29;20076;-82
2022/11/09 01:45:22;;;;;;;3.97;1.70;;;12.20;99.90;;;;;;4880507;29;20048;-80
2022/11/09 01:47:59;;;;;;;6.88;1.92;;;12.30;99.90;;;;;;4895327;29;20203;-80
2022/11/09 01:50:51;;;;;;;6.82;1.67;;;12.40;99.90;;;;;;4894026;29;20056;-80
2022/11/09 01:53:33;;;;;;;4.45;1.65;;;12.50;99.90;;;;;;4889211;29;20506;-80
2022/11/09 01:56:03;;;;;;;4.45;1.60;;;12.50;99.90;;;;;;4897426;29;20052;-80
2022/11/09 01:59:01;;;;;;;4.65;1.73;;;12.50;99.90;;;;;;4896586;29;20040;-80
2022/11/09 02:01:27;;;;;;;5.20;1.83;;;12.50;99.90;;;;;;4884534;29;20134;-80
2022/11/09 02:04:01;;;;;;;2.72;1.38;;;12.40;99.90;;;;;;4909744;29;20095;-80
2022/11/09 02:06:30;;;;;;;3.05;1.33;;;12.40;99.90;;;;;;4893695;29;20199;-79
2022/11/09 02:09:02;;;;;;;2.20;1.13;;;12.40;99.90;;;;;;4892859;29;20047;-80
2022/11/09 02:11:29;;;;;;;3.50;1.23;;;12.30;99.90;;;;;;4892964;29;20050;-80
2022/11/09 02:13:58;;;;;;;4.90;1.45;;;12.30;99.90;;;;;;4895170;29;20044;-80
2022/11/09 02:16:26;;;;;;;2.67;1.30;;;12.30;99.90;;;;;;4894922;29;20135;-80
2022/11/09 02:18:57;;;;;;;2.80;0.98;;;12.30;99.90;;;;;;4892452;29;20573;-80
2022/11/09 02:21:25;;;;;;;3.17;1.15;;;12.20;99.90;;;;;;4878094;29;20043;-79
2022/11/09 02:23:52;;;;;;;2.67;1.20;;;12.20;99.90;;;;;;4894449;29;20032;-80
2022/11/09 02:26:23;;;;;;;;;;;12.10;99.90;;;;;;4879710;29;20087;-80
2022/11/09 02:28:53;;;;;;;3.30;1.30;;;12.10;99.90;;;;;;4908886;29;20036;-80
2022/11/09 02:31:20;;;;;;;3.25;1.20;;;12.00;99.90;;;;;;4893743;29;20048;-74
2022/11/09 02:33:54;;;;;;;3.65;1.27;;;12.10;99.90;;;;;;4877106;29;20492;-74
2022/11/09 02:36:22;;;;;;;3.70;1.50;;;12.00;99.90;;;;;;4907276;29;20091;-74
2022/11/09 02:38:50;;;;;;;3.55;1.33;;;12.00;99.90;;;;;;4892009;29;20043;-75
2022/11/09 02:41:16;;;;;;;3.65;1.48;;;12.00;99.90;;;;;;4876040;29;20134;-74
2022/11/09 02:43:42;;;;;;;2.53;1.30;;;11.90;99.90;;;;;;4878346;29;20365;-74
2022/11/09 02:46:08;;;;;;;1.85;1.02;;;11.90;99.90;;;;;;4877334;29;20515;-75
2022/11/09 02:48:33;;;;;;;2.28;1.02;;;11.80;99.90;;;;;;4908339;29;20098;-75
2022/11/09 02:50:59;;;;;;;2.40;1.27;;;11.90;99.90;;;;;;4877435;29;20112;-74
2022/11/09 02:53:25;;;;;;;2.28;1.20;;;11.80;99.90;;;;;;4892899;29;20415;-75
2022/11/09 02:55:50;;;;;;;3.78;1.50;;;11.80;99.90;;;;;;4891500;29;20056;-74
2022/11/09 02:58:16;;;;;;;3.13;1.42;;;11.80;99.90;;;;;;4892293;29;20048;-74
2022/11/09 03:00:42;;;;;;;3.50;1.23;;;11.80;99.90;;;;;;4895368;29;20535;-74
2022/11/09 03:03:08;;;;;;;3.72;1.55;;;11.80;99.90;;;;;;4868263;29;20377;-74
2022/11/09 03:05:33;;;;;;;3.50;1.30;;;11.80;99.90;;;;;;4878062;29;20044;-74
2022/11/09 03:08:01;;;;;;;3.45;1.52;;;11.70;99.90;;;;;;4895892;29;20579;-74
2022/11/09 03:10:27;;;;;;;4.13;1.60;;;11.70;99.90;;;;;;4910587;29;20111;-74
2022/11/09 03:12:53;;;;;;;;;;;11.80;99.90;;;;;;4897272;29;20429;-75
2022/11/09 03:15:19;;;;;;;4.53;1.50;;;11.80;99.90;;;;;;4880716;29;19926;-74
2022/11/09 03:17:44;;;;;;;5.25;1.70;;;11.80;99.90;;;;;;4906548;29;20075;-74
2022/11/09 03:20:10;;;;;;;4.43;1.75;;;11.80;99.90;;;;;;4880687;29;20048;-74
2022/11/09 03:22:36;;;;;;;3.53;1.30;;;11.80;99.90;;;;;;4897726;29;20044;-74
2022/11/09 03:25:02;;;;;;;4.97;1.50;;;11.80;99.90;;;;;;4894584;29;20044;-74
2022/11/09 03:27:27;;;;;;;5.20;1.50;;;11.80;99.90;;;;;;4871010;29;20060;-79
2022/11/09 03:29:53;;;;;;;4.38;1.63;;;11.70;99.90;;;;;;4901474;29;20048;-79
2022/11/09 03:32:19;;;;;;;4.03;1.27;;;11.70;99.90;;;;;;4913882;29;20484;-80
2022/11/09 03:34:45;;;;;;;3.95;1.45;;;11.70;99.90;;;;;;4896579;29;20043;-79
2022/11/09 03:37:10;;;;;;;3.90;1.40;;;11.70;99.90;;;;;;4897468;29;20092;-81
2022/11/09 03:39:36;;;;;;;4.60;1.30;;;11.80;99.90;;;;;;4861683;29;20055;-80
2022/11/09 03:42:02;;;;;;;3.63;1.30;;;11.80;99.90;;;;;;4866838;29;20040;-80
2022/11/09 03:44:27;;;;;;;4.70;1.50;;;11.80;99.90;;;;;;4881485;29;20488;-79
2022/11/09 03:46:53;;;;;;;3.83;1.35;;;11.80;99.90;;;;;;4881470;29;20131;-80
2022/11/09 03:49:19;;;;;;;5.10;1.42;;;11.80;99.90;;;;;;4896580;29;20048;-84
2022/11/09 03:51:44;;;;;;;5.00;1.40;;;11.80;99.90;;;;;;4867449;29;20048;-81
2022/11/09 03:54:10;;;;;;;5.95;1.80;;;11.80;99.90;;;;;;4897242;29;20488;-81
2022/11/09 03:56:36;;;;;;;5.70;1.55;;;11.80;99.90;;;;;;4881882;29;20497;-82
2022/11/09 03:59:01;;;;;;;6.60;1.70;;;11.80;99.90;;;;;;4882203;29;20044;-81
2022/11/09 04:01:27;;;;;;;5.95;1.85;;;11.90;99.90;;;;;;4867510;29;20047;-82
2022/11/09 04:03:53;;;;;;;6.03;1.38;;;11.90;99.90;;;;;;4881276;29;20123;-82
2022/11/09 04:06:18;;;;;;;5.00;1.40;;;11.80;99.90;;;;;;4897892;29;20036;-82
2022/11/09 04:08:44;;;;;;;6.03;1.67;;;11.80;99.90;;;;;;4897152;29;20051;-82
2022/11/09 04:11:09;;;;;;;6.10;1.63;;;11.80;99.90;;;;;;4893817;29;20074;-81
2022/11/09 04:13:35;;;;;;;5.57;1.70;;;11.80;99.90;;;;;;4897575;29;20103;-82
2022/11/09 04:16:01;;;;;;;5.68;1.42;;;11.90;99.90;;;;;;4875873;29;20242;-82
2022/11/09 04:18:26;;;;;;;5.32;1.75;;;11.80;99.90;;;;;;4897784;29;20460;-82
2022/11/09 04:20:52;;;;;;;7.53;1.60;;;11.80;99.90;;;;;;4896823;29;20079;-81
2022/11/09 04:23:18;;;;;;;5.57;1.38;;;11.80;99.90;;;;;;4912757;29;20043;-82
2022/11/09 04:25:43;;;;;;;5.13;1.17;;;11.80;99.90;;;;;;4910946;29;20063;-82
2022/11/09 04:28:11;;;;;;;6.65;1.60;;;11.80;99.90;;;;;;4910973;29;20103;-81
2022/11/09 04:30:37;;;;;;;5.40;1.50;;;11.80;99.90;;;;;;4891823;29;20059;-82
2022/11/09 04:33:03;;;;;;;5.45;1.58;;;11.80;99.90;;;;;;4896019;29;20528;-82
2022/11/09 04:35:31;;;;;;;4.88;1.73;;;11.70;99.90;;;;;;4883256;29;20043;-82
2022/11/09 04:37:59;;;;;;;4.25;1.30;;;11.70;99.90;;;;;;4894644;29;20049;-82
2022/11/09 04:40:26;;;;;;;5.82;1.60;;;11.70;99.90;;;;;;4895467;29;20052;-82
2022/11/09 04:42:52;;;;;;;4.47;1.20;;;11.70;99.90;;;;;;4881368;29;20055;-82
2022/11/09 04:45:18;;;;;;;5.22;1.35;;;11.70;99.90;;;;;;4879351;29;20044;-82
2022/11/09 04:47:44;;;;;;;3.70;1.20;;;11.60;99.90;;;;;;4879245;29;20064;-82
2022/11/09 04:50:10;;;;;;;2.17;0.85;;;11.60;99.90;;;;;;4895659;29;20052;-82
2022/11/09 04:52:36;;;;;;;3.40;1.20;;;11.50;99.90;;;;;;4888493;29;20059;-82
2022/11/09 04:55:02;;;;;;;4.80;1.05;;;11.50;99.90;;;;;;4897016;29;20048;-82
2022/11/09 04:57:27;;;;;;;5.00;1.23;;;11.50;99.90;;;;;;4865121;29;20857;-81
2022/11/09 04:59:53;;;;;;;4.97;1.40;;;11.50;99.90;;;;;;4896182;29;20043;-82
2022/11/09 05:02:19;;;;;;;4.30;1.05;;;11.60;99.90;;;;;;4878170;29;20162;-81
2022/11/09 05:04:44;;;;;;;5.63;1.58;;;11.50;99.90;;;;;;4909323;29;20048;-81
2022/11/09 05:07:10;;;;;;;7.30;1.52;;;11.60;99.90;;;;;;4877716;29;20496;-82
2022/11/09 05:09:36;;;;;;;3.35;1.17;;;11.60;99.90;;;;;;4895559;29;20048;-82
2022/11/09 05:12:01;;;;;;;5.40;1.45;;;11.60;99.90;;;;;;4895616;29;20136;-82
2022/11/09 05:14:27;;;;;;;3.58;1.23;;;11.60;99.90;;;;;;4896834;29;20051;-82
2022/11/09 05:16:53;;;;;;;4.60;1.67;;;11.70;99.90;;;;;;4892999;29;20048;-82
2022/11/09 05:19:18;;;;;;;3.95;1.13;;;11.60;99.90;;;;;;4895687;29;20048;-82
2022/11/09 05:21:44;;;;;;;4.93;1.38;;;11.60;99.90;;;;;;4891012;29;20064;-82
2022/11/09 05:24:10;;;;;;;4.95;1.40;;;11.60;99.90;;;;;;4890736;29;20054;-82
2022/11/09 05:26:38;;;;;;;4.00;1.42;;;11.60;99.90;;;;;;4893916;29;21570;-82
2022/11/09 05:29:06;;;;;;;5.03;1.30;;;11.60;99.90;;;;;;4890030;29;20539;-81
2022/11/09 05:31:32;;;;;;;6.15;1.75;;;11.60;99.90;;;;;;4893005;29;20416;-82
2022/11/09 05:33:59;;;;;;;4.63;1.50;;;11.70;99.90;;;;;;4875249;29;20051;-82
2022/11/09 05:36:26;;;;;;;5.32;1.77;;;11.70;99.90;;;;;;4891874;29;20484;-82
2022/11/09 05:38:53;;;;;;;4.97;1.67;;;11.80;99.90;;;;;;4900387;29;20095;-82
2022/11/09 05:41:18;;;;;;;6.32;1.83;;;11.80;99.90;;;;;;4886674;29;20099;-82
2022/11/09 05:43:45;;;;;;;4.88;1.52;;;11.80;99.90;;;;;;4900570;29;20173;-81
2022/11/09 05:46:13;;;;;;;6.45;1.38;;;11.90;99.90;;;;;;4883307;29;20055;-82
2022/11/09 05:48:38;;;;;;;4.22;1.40;;;11.90;99.90;;;;;;4903501;29;20108;-81
2022/11/09 05:51:07;;;;;;;5.45;1.63;;;11.80;99.90;;;;;;4903849;29;20206;-80
2022/11/09 05:53:33;;;;;;;8.13;1.83;;;11.90;99.90;;;;;;4895519;29;20111;-74
2022/11/09 05:56:10;;;;;;;6.75;1.70;;;12.00;99.90;;;;;;4869390;29;20056;-74
2022/11/09 05:58:37;;;;;;;7.00;1.75;;;12.00;99.90;;;;;;4889810;29;20045;-74
2022/11/09 06:01:09;;;;;;;4.03;1.83;;;11.90;99.90;;;;;;4892262;29;20052;-73
2022/11/09 06:03:35;;;;;;;9.38;2.08;;;11.90;99.90;;;;;;4906752;29;20051;-74
2022/11/09 06:06:03;;;;;;;6.45;2.00;;;11.90;99.90;;;;;;4891615;29;20077;-75
2022/11/09 06:08:28;;;;;;;7.07;1.90;;;11.90;99.90;;;;;;4885274;29;20176;-75
2022/11/09 06:11:03;;;;;;;5.13;1.60;;;11.80;99.90;;;;;;4891615;29;20117;-75
2022/11/09 06:13:29;;;;;;;8.38;1.77;;;11.80;99.90;;;;;;4890667;29;20040;-77
2022/11/09 06:15:56;;;;;;;8.93;2.00;;;11.80;99.90;;;;;;4891703;29;20048;-76
2022/11/09 06:18:27;;;;;;;4.78;1.70;;;11.80;99.90;;;;;;4904242;29;20569;-76
2022/11/09 06:20:54;;;;;;;4.72;1.73;;;11.80;99.90;;;;;;4866738;29;20398;-75
2022/11/09 06:23:28;;;;;;;5.88;1.48;;;11.80;99.90;;;;;;4869216;29;20045;-75
2022/11/09 06:26:02;;;;;;;4.85;1.50;;;11.70;99.90;;;;;;4882481;29;20548;-76
2022/11/09 06:28:28;;;;;;;3.47;1.48;;;11.70;99.90;;;;;;4888509;29;20048;-74
2022/11/09 06:30:58;;;;;;;6.90;1.90;;;11.70;99.90;;;;;;4892066;29;20095;-75
2022/11/09 06:33:24;;;;;;;8.35;1.60;;;11.70;99.90;;;;;;4872246;29;20060;-75
2022/11/09 06:35:49;;;;;;;4.13;1.38;;;11.70;99.90;;;;;;4888883;29;20067;-74
2022/11/09 06:38:15;;;;;;;6.82;1.75;;;11.70;99.90;;;;;;4889178;29;20117;-74
2022/11/09 06:40:41;;;;;;;5.35;1.50;;;11.70;99.90;;;;;;4889259;29;20560;-74
2022/11/09 06:43:06;;;;;;;6.15;1.92;;;11.60;99.90;;;;;;4888134;29;20099;-75
2022/11/09 06:45:32;;;;;;;5.57;1.55;;;11.70;99.90;;;;;;4889047;29;20092;-73
2022/11/09 06:48:01;;;;;;;4.18;1.33;;;11.70;99.90;;;;;;4888737;29;20144;-75
2022/11/09 06:50:30;;;;;;;5.68;1.50;;;11.60;99.90;;;;;;4867921;29;20045;-76
2022/11/09 06:52:57;;;;;;;4.18;1.50;;;11.60;99.90;;;;;;4864892;29;20037;-74
2022/11/09 06:55:23;;;;;;;3.65;1.40;;;11.60;99.90;;;;;;4867788;29;20048;-75
2022/11/09 06:57:49;;;;;;;5.72;1.45;;;11.60;99.90;;;;;;4872890;29;20056;-74
2022/11/09 07:00:15;;;;;;;6.90;1.70;;;11.60;99.90;;;;;;4889116;29;20036;-74
2022/11/09 07:02:41;;;;;;;4.75;1.25;;;11.50;99.90;;;;;;4885649;29;20493;-74
2022/11/09 07:05:07;;;;;;;4.38;1.30;;;11.50;99.90;;;;;;4892941;29;20088;-75
2022/11/09 07:07:33;;;;;;;5.20;1.25;;;11.50;99.90;;;;;;4873946;29;20048;-76
2022/11/09 07:09:59;;;;;;;7.05;1.35;;;11.50;99.90;;;;;;4871767;29;20413;-76
2022/11/09 07:12:25;;;;;;;2.80;1.25;;;11.50;99.90;;;;;;4885417;29;20080;-75
2022/11/09 07:14:51;;;;;;;4.13;1.48;;;11.50;99.90;;;;;;4888396;29;20089;-75
2022/11/09 07:17:16;;;;;;;8.18;1.95;;;11.50;99.90;;;;;;4888363;29;20076;-76
2022/11/09 07:19:42;;;;;;;7.38;1.80;;;11.60;99.90;;;;;;4874776;29;20044;-75
2022/11/09 07:22:08;;;;;;;6.57;1.55;;;11.50;99.90;;;;;;4889439;29;20043;-74
2022/11/09 07:24:33;;;;;;;5.18;1.38;;;11.50;99.90;;;;;;4892442;29;20477;-74
2022/11/09 07:26:59;;;;;;;4.38;1.40;;;11.50;99.90;;;;;;4868254;29;20049;-74
2022/11/09 07:29:25;;;;;;;5.40;1.40;;;11.50;99.90;;;;;;4888821;29;20044;-75
2022/11/09 07:31:50;;;;;;;4.53;1.45;;;11.50;99.90;;;;;;4888244;29;20079;-76
2022/11/09 07:34:16;;;;;;;4.97;1.40;;;11.60;99.90;;;;;;4888952;29;20844;-76
2022/11/09 07:36:42;;;;;;;4.90;1.63;;;11.60;99.90;;;;;;4889788;29;20056;-74
2022/11/09 07:39:07;;;;;;;7.13;1.42;;;11.60;99.90;;;;;;4888510;29;20128;-73
2022/11/09 07:41:33;;;;;;;5.28;1.50;;;11.60;99.90;;;;;;4889141;29;20064;-73
2022/11/09 07:43:59;;;;;;;6.40;1.73;;;11.60;99.90;;;;;;4870709;29;20495;-74
2022/11/09 07:46:25;;;;;;;6.07;1.45;;;11.60;99.90;;;;;;4891433;29;20047;-76
2022/11/09 07:48:50;;;;;;;4.65;1.33;;;11.70;99.90;;;;;;4891810;29;20060;-74
2022/11/09 07:51:16;;;;;;;4.80;1.27;;;11.70;99.90;;;;;;4891699;29;20496;-74
2022/11/09 07:53:42;;;;;;;6.13;1.60;;;11.70;99.90;;;;;;4874715;29;20469;-74
2022/11/09 07:56:08;;;;;;;5.75;1.48;;;11.70;99.90;;;;;;4869117;29;20088;-74
2022/11/09 07:58:34;;;;;;;4.97;1.55;;;11.70;99.90;;;;;;4890580;29;20055;-74
2022/11/09 08:01:00;;;;;;;5.93;1.55;;;11.70;99.90;;;;;;4867984;29;20041;-75
2022/11/09 08:03:26;;;;;;;4.43;1.30;;;11.70;99.90;;;;;;4877733;29;20046;-75
2022/11/09 08:05:52;;;;;;;7.47;1.67;;;11.80;99.90;;;;;;4906405;29;20123;-75
2022/11/09 08:08:17;;;;;;;7.70;1.48;;;11.70;99.90;;;;;;4849812;29;20044;-75
2022/11/09 08:10:49;;;;;;;4.75;1.40;;;11.80;99.90;;;;;;4877696;29;20112;-74
2022/11/09 08:13:14;;;;;;;6.47;1.50;;;11.90;99.90;;;;;;4889487;29;20049;-75
2022/11/09 08:15:41;;;;;;;5.75;1.50;;;11.90;99.90;;;;;;4907096;29;20115;-75
2022/11/09 08:18:10;;;;;;;4.78;1.30;;;11.90;99.90;;;;;;4892546;29;20067;-74
2022/11/09 08:20:36;;;;;;;5.30;1.40;;;11.90;99.90;;;;;;4889508;29;20835;-75
2022/11/09 08:23:02;;;;;;;5.80;1.50;;;11.90;99.90;;;;;;4906395;29;20048;-74
2022/11/09 08:25:28;;;;;;;4.15;1.35;;;11.90;99.90;;;;;;4878813;29;20055;-75
2022/11/09 08:27:57;;;;;;;8.10;1.98;;;12.00;99.90;;;;;;4873226;29;20041;-74
2022/11/09 08:30:23;;;;;;;7.40;1.60;;;12.00;99.90;;;;;;4892532;29;20485;-75
2022/11/09 08:32:49;;;;;;;11.43;2.17;;;12.00;99.90;;;;;;4877214;29;20127;-81
2022/11/09 08:35:16;;;;;;;;;;;12.10;99.90;;;;;;4882522;29;20116;-81
2022/11/09 08:37:44;;;;;;;6.45;1.65;;;12.10;99.90;;;;;;4898670;29;19923;-80
2022/11/09 08:40:10;;;;;;;7.18;1.63;;;12.10;99.90;;;;;;4881767;29;20048;-80
2022/11/09 08:42:36;;;;;;;5.22;1.80;;;12.10;99.90;;;;;;4882461;29;20100;-81
2022/11/09 08:45:02;;;;;;;5.25;1.60;;;12.20;99.90;;;;;;4878540;29;20049;-83
2022/11/09 08:47:28;;;;;;;7.95;1.83;;;12.20;99.90;;;;;;4884310;29;20033;-83
2022/11/09 08:49:54;;;;;;;6.80;1.70;;;12.20;99.90;;;;;;4894151;29;20064;-80
2022/11/09 08:52:20;;;;;;;6.28;1.40;;;12.30;99.90;;;;;;4906667;29;20040;-81
2022/11/09 08:54:45;;;;;;;5.70;1.50;;;12.30;99.90;;;;;;4882822;29;20037;-81
2022/11/09 08:57:12;;;;;;;6.80;1.90;;;12.40;99.90;;;;;;4882106;29;20048;-81
2022/11/09 08:59:37;;;;;;;;;;;12.50;99.90;;;;;;4882307;29;20049;-81
2022/11/09 09:02:03;;;;;;;9.45;1.90;;;12.50;99.90;;;;;;4897470;29;19920;-82
2022/11/09 09:04:29;;;;;;;7.03;1.38;;;12.60;99.90;;;;;;4898359;29;20044;-81
2022/11/09 09:06:55;;;;;;;8.00;2.22;;;12.60;99.90;;;;;;4900733;29;20051;-81
2022/11/09 09:09:21;;;;;;;7.32;1.73;;;12.60;99.90;;;;;;4900930;29;20044;-81
2022/11/09 09:11:47;;;;;;;5.78;1.65;;;12.60;99.90;;;;;;4900434;29;20511;-81
2022/11/09 09:14:14;;;;;;;7.20;1.83;;;12.60;99.90;;;;;;4900456;29;20524;-82
2022/11/09 09:16:40;;;;;;;6.70;1.50;;;12.70;99.90;;;;;;4900923;29;20395;-81
2022/11/09 09:19:06;;;;;;;8.10;1.83;;;12.70;99.90;;;;;;4900636;29;20052;-81
2022/11/09 09:21:32;;;;;;;3.53;1.42;;;12.70;99.90;;;;;;4901422;29;20047;-81
2022/11/09 09:23:57;;;;;;;7.90;1.63;;;12.70;99.90;;;;;;4900959;29;20036;-81
2022/11/09 09:26:23;;;;;;;6.05;1.55;;;12.70;99.90;;;;;;4900624;29;20123;-82
2022/11/09 09:28:50;;;;;;;9.25;2.05;;;12.70;99.90;;;;;;4885013;29;20096;-81
2022/11/09 09:31:16;;;;;;;8.05;2.03;;;12.80;99.90;;;;;;4900054;29;20048;-82
2022/11/09 09:33:41;;;;;;;8.93;2.28;;;12.80;99.90;;;;;;4884532;29;20055;-81
2022/11/09 09:36:08;;;;;;;7.60;1.90;;;12.80;99.90;;;;;;4899895;29;20143;-81
2022/11/09 09:38:34;;;;;;;6.85;1.83;;;12.80;99.90;;;;;;4899925;29;20052;-80
2022/11/09 09:41:05;;;;;;;5.63;1.63;;;12.90;99.90;;;;;;4884745;29;20103;-80
2022/11/09 09:43:39;;;;;;;9.05;1.70;;;13.00;99.90;;;;;;4900097;29;20044;-80
2022/11/09 09:46:12;;;;;;;7.93;1.70;;;13.00;99.90;;;;;;4900251;29;20063;-79
2022/11/09 09:49:16;;;;;;;5.88;1.52;;;13.10;99.90;;;;;;4880939;29;20493;-79
2022/11/09 09:51:52;;;;;;;7.97;1.90;;;13.10;99.90;;;;;;4894807;29;20071;-80
2022/11/09 09:54:23;;;;;;;7.90;1.80;;;13.10;99.90;;;;;;4897104;29;20374;-80
2022/11/09 09:56:52;;;;;;;7.07;1.65;;;13.20;99.90;;;;;;4894889;29;20055;-79
2022/11/09 09:59:26;;;;;;;4.72;1.58;;;13.30;99.90;;;;;;4911966;29;20051;-80
2022/11/09 10:01:52;;;;;;;5.88;1.58;;;13.20;99.90;;;;;;4896342;29;20056;-79
2022/11/09 10:04:25;;;;;;;9.50;1.80;;;13.30;99.90;;;;;;4896608;29;20048;-80
2022/11/09 10:07:03;;;;;;;8.38;1.80;;;13.40;99.90;;;;;;4881261;29;20051;-79
2022/11/09 10:09:51;;;;;;;6.38;1.70;;;13.50;99.90;;;;;;4896545;29;20138;-79
2022/11/09 10:12:49;;;;;;;6.80;1.50;;;13.50;99.90;;;;;;4896420;29;20056;-79
2022/11/09 10:15:33;;;;;;;;;;;13.60;99.90;;;;;;4896741;29;20047;-81
2022/11/09 10:18:23;;;;;;;6.47;1.95;;;13.60;99.90;;;;;;4896159;29;19927;-80
2022/11/09 10:20:54;;;;;;;4.45;1.55;;;13.60;99.90;;;;;;4896983;29;20041;-80
2022/11/09 10:23:40;;;;;;;5.82;1.73;;;13.60;99.90;;;;;;4896521;29;20111;-80
2022/11/09 10:26:39;;;;;;;5.45;1.60;;;13.70;99.90;;;;;;4895014;29;20059;-73
2022/11/09 10:29:47;;;;;;;8.35;2.30;;;13.80;99.90;;;;;;4894991;29;20410;-73
2022/11/09 10:32:19;;;;;;;5.35;1.80;;;13.80;99.90;;;;;;4897835;29;20151;-73
2022/11/09 10:35:14;;;;;;;9.00;2.42;;;13.80;99.90;;;;;;4895086;29;20071;-74
2022/11/09 10:37:45;;;;;;;6.68;2.10;;;13.90;99.90;;;;;;4894383;29;20076;-73
2022/11/09 10:40:17;;;;;;;9.07;2.60;;;14.00;99.90;;;;;;4894492;29;20046;-73
2022/11/09 10:43:10;;;;;;;6.60;2.00;;;14.00;99.90;;;;;;4879065;29;20044;-74
2022/11/09 10:45:39;;;;;;;8.02;2.10;;;13.80;99.90;;;;;;4894447;29;20568;-73
2022/11/09 10:48:07;;;;;;;6.07;2.05;;;13.70;99.90;;;;;;4894590;29;20076;-73
2022/11/09 10:50:53;;;;;;;7.00;2.15;;;13.70;99.90;;;;;;4894600;29;20065;-74
2022/11/09 10:53:24;;;;;;;11.15;2.28;;;13.60;99.90;;;;;;4892910;29;20064;-73
2022/11/09 10:55:53;;;;;;;8.60;2.13;;;13.60;99.90;;;;;;4885790;29;20052;-73
2022/11/09 10:58:37;;;;;;;5.53;2.17;;;13.60;99.90;;;;;;4878798;29;20135;-72
2022/11/09 11:01:12;;;;;;;6.07;2.30;;;13.60;99.90;;;;;;4894434;29;20502;-73
2022/11/09 11:03:39;;;;;;;5.43;2.15;;;13.70;99.90;;;;;;4894662;29;20054;-73
2022/11/09 11:06:13;;;;;;;5.10;2.25;;;13.70;99.90;;;;;;4894544;29;20131;-74
2022/11/09 11:08:51;;;;;;;8.00;2.63;;;13.70;99.90;;;;;;4878871;29;20044;-73
2022/11/09 11:11:30;;;;;;;5.03;1.88;;;13.70;99.90;;;;;;4894757;29;20108;-75
2022/11/09 11:14:23;;;;;;;7.22;1.98;;;13.70;99.90;;;;;;4894515;29;20052;-73
2022/11/09 11:16:51;;;;;;;7.72;2.13;;;13.70;99.90;;;;;;4910081;29;20489;-72
2022/11/09 11:19:40;;;;;;;6.45;2.00;;;13.60;99.90;;;;;;4878824;29;20452;-73
2022/11/09 11:22:13;;;;;;;6.85;1.95;;;13.60;99.90;;;;;;4897441;29;20136;-74
2022/11/09 11:24:55;;;;;;;7.15;2.20;;;13.60;99.90;;;;;;4883005;29;20044;-73
2022/11/09 11:27:46;;;;;;;5.47;1.77;;;13.60;99.90;;;;;;4898782;29;20087;-73
2022/11/09 11:30:18;;;;;;;6.22;1.90;;;13.60;99.90;;;;;;4890444;29;20052;-73
2022/11/09 11:32:44;;;;;;;9.20;2.00;;;13.60;99.90;;;;;;4882682;29;20087;-73
2022/11/09 11:35:26;;;;;;;5.60;2.00;;;13.60;99.90;;;;;;4897966;29;20069;-73
2022/11/09 11:38:01;;;;;;;6.38;2.15;;;13.70;99.90;;;;;;4883256;29;20132;-72
2022/11/09 11:40:33;;;;;;;8.65;2.35;;;13.60;99.90;;;;;;4898649;29;20747;-74
2022/11/09 11:43:45;;;;;;;6.57;2.03;;;13.70;99.90;;;;;;4897877;29;20040;-73
2022/11/09 11:46:30;;;;;;;7.82;2.20;;;13.70;99.90;;;;;;4894622;29;20059;-73
2022/11/09 11:49:16;;;;;;;5.97;1.90;;;13.70;99.90;;;;;;4880590;29;20529;-72
2022/11/09 11:51:51;;;;;;;8.05;2.30;;;13.70;99.90;;;;;;4897904;29;20477;-73
2022/11/09 11:54:44;;;;;;;4.45;2.15;;;13.80;99.90;;;;;;4898098;29;20092;-73
2022/11/09 11:57:19;;;;;;;6.60;1.88;;;13.80;99.90;;;;;;4897402;29;20045;-72
2022/11/09 11:59:51;;;;;;;7.60;2.10;;;13.80;99.90;;;;;;4897806;29;20504;-73
2022/11/09 12:02:28;;;;;;;6.70;2.15;;;13.90;99.90;;;;;;4897808;29;20059;-73
2022/11/09 12:05:19;;;;;;;4.93;1.83;;;14.00;99.90;;;;;;4897172;29;20131;-73
2022/11/09 12:07:55;;;;;;;6.65;1.80;;;14.10;99.90;;;;;;4897482;29;20107;-73
2022/11/09 12:10:33;;;;;;;6.53;2.10;;;14.10;99.90;;;;;;4895629;29;20143;-73
2022/11/09 12:13:24;;;;;;;6.13;2.03;;;14.00;99.90;;;;;;4897106;29;20043;-73
2022/11/09 12:16:15;;;;;;;7.68;2.30;;;13.80;99.90;;;;;;4897729;29;20068;-79
2022/11/09 12:19:05;;;;;;;9.52;2.50;;;13.80;99.90;;;;;;4898489;29;20080;-79
2022/11/09 12:21:41;;;;;;;7.78;1.98;;;13.70;99.90;;;;;;4898302;29;20056;-79
2022/11/09 12:24:27;;;;;;;6.18;1.90;;;13.70;99.90;;;;;;4898344;29;20051;-80
2022/11/09 12:27:24;;;;;;;8.10;2.10;;;13.60;99.90;;;;;;4897866;29;20056;-80
2022/11/09 12:29:54;;;;;;;7.25;2.28;;;13.60;99.90;;;;;;4897982;29;20048;-79
2022/11/09 12:32:43;;;;;;;5.80;2.42;;;13.60;99.90;;;;;;4897156;29;20063;-79
2022/11/09 12:35:18;;;;;;;9.75;2.60;;;13.70;99.90;;;;;;4895372;29;20048;-79
2022/11/09 12:37:54;;;;;;;7.40;2.33;;;13.70;99.90;;;;;;4894976;29;20049;-79
2022/11/09 12:40:35;;;;;;;8.65;2.50;;;13.70;99.90;;;;;;4879114;29;20044;-79
2022/11/09 12:43:00;;;;;;;7.70;2.55;;;13.70;99.90;;;;;;4894714;29;20142;-78
2022/11/09 12:45:31;;;;;;;7.10;2.40;;;13.80;99.90;;;;;;4894119;29;20128;-80
2022/11/09 12:48:05;;;;;;;9.27;2.50;;;13.80;99.90;;;;;;4878962;29;20053;-79
2022/11/09 12:50:32;;;;;;;7.10;2.30;;;13.80;99.90;;;;;;4894702;29;20485;-80
2022/11/09 12:53:00;;;;;;;5.95;1.98;;;13.80;99.90;;;;;;4879401;29;20109;-79
2022/11/09 12:55:50;;;;;;;5.18;2.10;;;13.80;99.90;;;;;;4894075;29;20082;-80
2022/11/09 12:58:23;;;;;;;9.45;2.20;;;13.80;99.90;;;;;;4893988;29;20057;-80
2022/11/09 13:00:58;;;;;;;6.57;2.10;;;13.70;99.90;;;;;;4879349;29;20048;-80